sensor_id;sensor_type;location;lat;lon;timestamp;P1;durP1;ratioP1;P2;durP2;ratioP2
18711;SDS011;9485;49.386;8.674;2023-02-28T00:01:16;1.77;;;1.67;;
18711;SDS011;9485;49.386;8.674;2023-02-28T00:06:38;2.60;;;2.20;;
18711;SDS011;9485;49.386;8.674;2023-02-28T00:11:59;2.53;;;2.33;;
18711;SDS011;9485;49.386;8.674;2023-02-28T00:17:22;2.50;;;2.30;;
18711;SDS011;9485;49.386;8.674;2023-02-28T00:22:45;2.67;;;2.47;;
18711;SDS011;9485;49.386;8.674;2023-02-28T00:28:07;2.70;;;2.07;;
18711;SDS011;9485;49.386;8.674;2023-02-28T00:33:28;2.03;;;1.90;;
18711;SDS011;9485;49.386;8.674;2023-02-28T00:51:16;2.20;;;2.10;;
18711;SDS011;9485;49.386;8.674;2023-02-28T00:56:38;2.57;;;2.37;;
18711;SDS011;9485;49.386;8.674;2023-02-28T01:01:59;2.50;;;2.30;;
18711;SDS011;9485;49.386;8.674;2023-02-28T01:07:22;2.40;;;2.20;;
18711;SDS011;9485;49.386;8.674;2023-02-28T01:12:44;2.53;;;2.33;;
18711;SDS011;9485;49.386;8.674;2023-02-28T01:18:05;2.80;;;2.50;;
18711;SDS011;9485;49.386;8.674;2023-02-28T01:23:26;2.80;;;2.60;;
18711;SDS011;9485;49.386;8.674;2023-02-28T01:28:48;2.53;;;2.33;;
18711;SDS011;9485;49.386;8.674;2023-02-28T01:34:11;2.77;;;2.37;;
18711;SDS011;9485;49.386;8.674;2023-02-28T01:39:32;2.60;;;2.40;;
18711;SDS011;9485;49.386;8.674;2023-02-28T01:45:03;2.87;;;2.10;;
18711;SDS011;9485;49.386;8.674;2023-02-28T01:50:41;3.40;;;2.80;;
18711;SDS011;9485;49.386;8.674;2023-02-28T01:56:06;2.53;;;2.30;;
18711;SDS011;9485;49.386;8.674;2023-02-28T02:01:30;4.03;;;2.23;;
18711;SDS011;9485;49.386;8.674;2023-02-28T02:06:53;3.20;;;2.47;;
18711;SDS011;9485;49.386;8.674;2023-02-28T02:12:18;3.10;;;2.80;;
18711;SDS011;9485;49.386;8.674;2023-02-28T02:17:56;2.60;;;2.40;;
18711;SDS011;9485;49.386;8.674;2023-02-28T02:30:06;3.40;;;2.50;;
18711;SDS011;9485;49.386;8.674;2023-02-28T02:36:06;4.00;;;2.70;;
18711;SDS011;9485;49.386;8.674;2023-02-28T02:41:36;3.07;;;2.70;;
18711;SDS011;9485;49.386;8.674;2023-02-28T02:47:08;3.47;;;3.10;;
18711;SDS011;9485;49.386;8.674;2023-02-28T02:52:36;2.87;;;2.60;;
18711;SDS011;9485;49.386;8.674;2023-02-28T02:58:07;3.40;;;2.77;;
18711;SDS011;9485;49.386;8.674;2023-02-28T03:03:35;2.83;;;2.63;;
18711;SDS011;9485;49.386;8.674;2023-02-28T03:08:57;4.07;;;2.93;;
18711;SDS011;9485;49.386;8.674;2023-02-28T03:14:25;4.63;;;2.90;;
18711;SDS011;9485;49.386;8.674;2023-02-28T03:20:07;3.63;;;2.73;;
18711;SDS011;9485;49.386;8.674;2023-02-28T03:25:41;3.50;;;3.20;;
18711;SDS011;9485;49.386;8.674;2023-02-28T03:31:19;3.10;;;2.80;;
18711;SDS011;9485;49.386;8.674;2023-02-28T03:36:47;3.67;;;3.33;;
18711;SDS011;9485;49.386;8.674;2023-02-28T03:42:15;3.77;;;3.47;;
18711;SDS011;9485;49.386;8.674;2023-02-28T03:47:43;4.33;;;3.40;;
18711;SDS011;9485;49.386;8.674;2023-02-28T03:53:13;3.77;;;2.80;;
18711;SDS011;9485;49.386;8.674;2023-02-28T03:58:41;4.07;;;2.80;;
18711;SDS011;9485;49.386;8.674;2023-02-28T04:04:09;2.80;;;2.60;;
18711;SDS011;9485;49.386;8.674;2023-02-28T04:09:31;3.17;;;2.87;;
18711;SDS011;9485;49.386;8.674;2023-02-28T04:14:55;3.53;;;3.23;;
18711;SDS011;9485;49.386;8.674;2023-02-28T04:20:15;4.43;;;3.30;;
18711;SDS011;9485;49.386;8.674;2023-02-28T04:25:36;3.87;;;3.10;;
18711;SDS011;9485;49.386;8.674;2023-02-28T04:31:01;4.17;;;3.63;;
18711;SDS011;9485;49.386;8.674;2023-02-28T04:36:24;3.20;;;2.90;;
18711;SDS011;9485;49.386;8.674;2023-02-28T04:41:45;3.40;;;3.10;;
18711;SDS011;9485;49.386;8.674;2023-02-28T04:47:07;3.83;;;3.43;;
18711;SDS011;9485;49.386;8.674;2023-02-28T04:52:28;3.70;;;3.23;;
18711;SDS011;9485;49.386;8.674;2023-02-28T04:57:49;3.90;;;3.43;;
18711;SDS011;9485;49.386;8.674;2023-02-28T05:03:11;4.67;;;3.57;;
18711;SDS011;9485;49.386;8.674;2023-02-28T05:08:31;3.23;;;2.93;;
18711;SDS011;9485;49.386;8.674;2023-02-28T05:13:52;3.37;;;3.07;;
18711;SDS011;9485;49.386;8.674;2023-02-28T05:19:15;4.00;;;3.57;;
18711;SDS011;9485;49.386;8.674;2023-02-28T05:24:36;4.17;;;3.37;;
18711;SDS011;9485;49.386;8.674;2023-02-28T05:29:57;3.37;;;3.07;;
18711;SDS011;9485;49.386;8.674;2023-02-28T05:35:26;4.40;;;2.77;;
18711;SDS011;9485;49.386;8.674;2023-02-28T05:40:50;5.40;;;3.40;;
18711;SDS011;9485;49.386;8.674;2023-02-28T05:46:12;3.80;;;3.40;;
18711;SDS011;9485;49.386;8.674;2023-02-28T05:51:35;3.87;;;3.43;;
18711;SDS011;9485;49.386;8.674;2023-02-28T05:56:58;3.33;;;3.07;;
18711;SDS011;9485;49.386;8.674;2023-02-28T06:02:19;3.40;;;3.10;;
18711;SDS011;9485;49.386;8.674;2023-02-28T06:07:41;4.20;;;3.43;;
18711;SDS011;9485;49.386;8.674;2023-02-28T06:13:01;3.50;;;2.97;;
18711;SDS011;9485;49.386;8.674;2023-02-28T06:18:23;4.30;;;3.77;;
18711;SDS011;9485;49.386;8.674;2023-02-28T06:23:45;4.47;;;4.07;;
18711;SDS011;9485;49.386;8.674;2023-02-28T06:29:07;5.13;;;3.70;;
18711;SDS011;9485;49.386;8.674;2023-02-28T06:34:28;4.00;;;3.60;;
18711;SDS011;9485;49.386;8.674;2023-02-28T06:39:51;4.20;;;3.80;;
18711;SDS011;9485;49.386;8.674;2023-02-28T06:45:12;6.10;;;3.80;;
18711;SDS011;9485;49.386;8.674;2023-02-28T06:50:32;4.50;;;3.37;;
18711;SDS011;9485;49.386;8.674;2023-02-28T06:55:55;6.17;;;4.13;;
18711;SDS011;9485;49.386;8.674;2023-02-28T07:01:15;4.47;;;3.80;;
18711;SDS011;9485;49.386;8.674;2023-02-28T07:06:37;4.50;;;4.10;;
18711;SDS011;9485;49.386;8.674;2023-02-28T07:11:59;3.47;;;3.00;;
18711;SDS011;9485;49.386;8.674;2023-02-28T07:17:20;4.30;;;3.80;;
18711;SDS011;9485;49.386;8.674;2023-02-28T07:22:40;3.70;;;3.40;;
18711;SDS011;9485;49.386;8.674;2023-02-28T07:28:13;4.83;;;4.10;;
18711;SDS011;9485;49.386;8.674;2023-02-28T07:33:36;3.97;;;3.30;;
18711;SDS011;9485;49.386;8.674;2023-02-28T07:39:00;4.23;;;3.83;;
18711;SDS011;9485;49.386;8.674;2023-02-28T07:44:24;4.60;;;3.60;;
18711;SDS011;9485;49.386;8.674;2023-02-28T07:49:45;4.63;;;3.77;;
18711;SDS011;9485;49.386;8.674;2023-02-28T07:55:07;4.20;;;3.63;;
18711;SDS011;9485;49.386;8.674;2023-02-28T08:00:31;4.77;;;4.27;;
18711;SDS011;9485;49.386;8.674;2023-02-28T08:05:53;6.20;;;4.33;;
18711;SDS011;9485;49.386;8.674;2023-02-28T08:11:15;7.73;;;4.67;;
18711;SDS011;9485;49.386;8.674;2023-02-28T08:16:38;4.90;;;4.13;;
18711;SDS011;9485;49.386;8.674;2023-02-28T08:21:59;5.57;;;4.33;;
18711;SDS011;9485;49.386;8.674;2023-02-28T08:27:23;4.53;;;4.13;;
18711;SDS011;9485;49.386;8.674;2023-02-28T08:32:46;4.53;;;4.10;;
18711;SDS011;9485;49.386;8.674;2023-02-28T08:38:08;4.90;;;3.73;;
18711;SDS011;9485;49.386;8.674;2023-02-28T08:43:30;4.40;;;3.80;;
18711;SDS011;9485;49.386;8.674;2023-02-28T08:48:54;5.97;;;4.47;;
18711;SDS011;9485;49.386;8.674;2023-02-28T08:54:20;4.43;;;4.03;;
18711;SDS011;9485;49.386;8.674;2023-02-28T08:59:42;4.73;;;3.83;;
18711;SDS011;9485;49.386;8.674;2023-02-28T09:05:06;5.43;;;4.57;;
18711;SDS011;9485;49.386;8.674;2023-02-28T09:10:35;4.70;;;4.20;;
18711;SDS011;9485;49.386;8.674;2023-02-28T09:15:57;10.43;;;4.17;;
18711;SDS011;9485;49.386;8.674;2023-02-28T09:21:25;5.83;;;3.87;;
18711;SDS011;9485;49.386;8.674;2023-02-28T09:26:47;4.67;;;3.73;;
18711;SDS011;9485;49.386;8.674;2023-02-28T09:32:15;4.80;;;3.90;;
18711;SDS011;9485;49.386;8.674;2023-02-28T09:40:19;3.90;;;3.50;;
18711;SDS011;9485;49.386;8.674;2023-02-28T09:47:32;4.70;;;3.70;;
18711;SDS011;9485;49.386;8.674;2023-02-28T09:53:01;4.73;;;3.77;;
18711;SDS011;9485;49.386;8.674;2023-02-28T09:58:33;5.57;;;4.13;;
18711;SDS011;9485;49.386;8.674;2023-02-28T10:04:10;4.60;;;3.80;;
18711;SDS011;9485;49.386;8.674;2023-02-28T10:10:04;5.13;;;4.47;;
18711;SDS011;9485;49.386;8.674;2023-02-28T10:15:54;4.70;;;4.10;;
18711;SDS011;9485;49.386;8.674;2023-02-28T10:21:26;5.10;;;4.60;;
18711;SDS011;9485;49.386;8.674;2023-02-28T10:26:59;5.50;;;4.40;;
18711;SDS011;9485;49.386;8.674;2023-02-28T10:32:31;4.83;;;4.17;;
18711;SDS011;9485;49.386;8.674;2023-02-28T10:38:00;7.67;;;5.07;;
18711;SDS011;9485;49.386;8.674;2023-02-28T10:43:36;5.13;;;4.63;;
18711;SDS011;9485;49.386;8.674;2023-02-28T10:49:04;6.27;;;4.70;;
18711;SDS011;9485;49.386;8.674;2023-02-28T10:54:39;6.97;;;4.47;;
18711;SDS011;9485;49.386;8.674;2023-02-28T11:00:06;5.17;;;4.00;;
18711;SDS011;9485;49.386;8.674;2023-02-28T11:05:38;5.00;;;4.20;;
18711;SDS011;9485;49.386;8.674;2023-02-28T11:11:06;5.40;;;4.40;;
18711;SDS011;9485;49.386;8.674;2023-02-28T11:16:32;5.00;;;4.47;;
18711;SDS011;9485;49.386;8.674;2023-02-28T11:27:51;5.77;;;4.33;;
18711;SDS011;9485;49.386;8.674;2023-02-28T11:33:23;5.17;;;4.60;;
18711;SDS011;9485;49.386;8.674;2023-02-28T11:38:48;5.70;;;4.67;;
18711;SDS011;9485;49.386;8.674;2023-02-28T11:44:14;4.97;;;4.47;;
18711;SDS011;9485;49.386;8.674;2023-02-28T11:49:57;4.93;;;4.37;;
18711;SDS011;9485;49.386;8.674;2023-02-28T11:55:44;5.10;;;4.50;;
18711;SDS011;9485;49.386;8.674;2023-02-28T12:01:18;6.40;;;5.03;;
18711;SDS011;9485;49.386;8.674;2023-02-28T12:06:55;4.70;;;4.30;;
18711;SDS011;9485;49.386;8.674;2023-02-28T12:12:28;5.63;;;4.80;;
18711;SDS011;9485;49.386;8.674;2023-02-28T12:18:04;5.50;;;4.73;;
18711;SDS011;9485;49.386;8.674;2023-02-28T12:23:55;5.20;;;4.20;;
18711;SDS011;9485;49.386;8.674;2023-02-28T12:29:55;5.73;;;5.00;;
18711;SDS011;9485;49.386;8.674;2023-02-28T12:35:23;6.80;;;5.37;;
18711;SDS011;9485;49.386;8.674;2023-02-28T12:40:55;6.20;;;5.60;;
18711;SDS011;9485;49.386;8.674;2023-02-28T12:46:23;6.40;;;5.37;;
18711;SDS011;9485;49.386;8.674;2023-02-28T12:51:51;5.77;;;5.10;;
18711;SDS011;9485;49.386;8.674;2023-02-28T12:57:13;5.77;;;5.20;;
18711;SDS011;9485;49.386;8.674;2023-02-28T13:02:50;7.80;;;5.40;;
18711;SDS011;9485;49.386;8.674;2023-02-28T13:14:26;6.77;;;5.77;;
18711;SDS011;9485;49.386;8.674;2023-02-28T13:19:56;7.50;;;6.03;;
18711;SDS011;9485;49.386;8.674;2023-02-28T13:31:13;6.00;;;5.40;;
18711;SDS011;9485;49.386;8.674;2023-02-28T13:36:37;6.37;;;5.40;;
18711;SDS011;9485;49.386;8.674;2023-02-28T13:42:00;5.80;;;4.97;;
18711;SDS011;9485;49.386;8.674;2023-02-28T13:47:58;8.20;;;5.70;;
18711;SDS011;9485;49.386;8.674;2023-02-28T13:53:34;6.03;;;5.03;;
18711;SDS011;9485;49.386;8.674;2023-02-28T13:59:22;7.50;;;5.93;;
18711;SDS011;9485;49.386;8.674;2023-02-28T14:05:05;7.97;;;6.07;;
18711;SDS011;9485;49.386;8.674;2023-02-28T14:10:36;5.93;;;5.27;;
18711;SDS011;9485;49.386;8.674;2023-02-28T14:16:07;6.03;;;5.40;;
18711;SDS011;9485;49.386;8.674;2023-02-28T14:21:32;5.90;;;5.30;;
18711;SDS011;9485;49.386;8.674;2023-02-28T14:27:04;5.70;;;5.17;;
18711;SDS011;9485;49.386;8.674;2023-02-28T14:32:50;6.80;;;5.23;;
18711;SDS011;9485;49.386;8.674;2023-02-28T14:38:28;6.13;;;5.40;;
18711;SDS011;9485;49.386;8.674;2023-02-28T14:43:55;6.20;;;5.23;;
18711;SDS011;9485;49.386;8.674;2023-02-28T14:49:20;6.57;;;5.47;;
18711;SDS011;9485;49.386;8.674;2023-02-28T14:54:50;6.60;;;5.77;;
18711;SDS011;9485;49.386;8.674;2023-02-28T15:00:18;7.13;;;5.90;;
18711;SDS011;9485;49.386;8.674;2023-02-28T15:05:52;6.20;;;4.87;;
18711;SDS011;9485;49.386;8.674;2023-02-28T15:11:16;6.27;;;5.10;;
18711;SDS011;9485;49.386;8.674;2023-02-28T15:16:46;7.70;;;5.63;;
18711;SDS011;9485;49.386;8.674;2023-02-28T15:22:19;6.00;;;5.40;;
18711;SDS011;9485;49.386;8.674;2023-02-28T15:27:50;6.17;;;4.77;;
18711;SDS011;9485;49.386;8.674;2023-02-28T15:33:20;5.93;;;5.33;;
18711;SDS011;9485;49.386;8.674;2023-02-28T15:38:47;7.10;;;5.37;;
18711;SDS011;9485;49.386;8.674;2023-02-28T15:49:56;6.93;;;5.20;;
18711;SDS011;9485;49.386;8.674;2023-02-28T15:55:23;6.03;;;5.43;;
18711;SDS011;9485;49.386;8.674;2023-02-28T16:00:59;6.37;;;5.37;;
18711;SDS011;9485;49.386;8.674;2023-02-28T16:06:39;5.73;;;4.97;;
18711;SDS011;9485;49.386;8.674;2023-02-28T16:12:08;7.77;;;5.57;;
18711;SDS011;9485;49.386;8.674;2023-02-28T16:17:35;6.77;;;5.57;;
18711;SDS011;9485;49.386;8.674;2023-02-28T16:22:59;6.27;;;5.30;;
18711;SDS011;9485;49.386;8.674;2023-02-28T16:28:25;6.07;;;5.47;;
18711;SDS011;9485;49.386;8.674;2023-02-28T16:33:51;6.10;;;5.43;;
18711;SDS011;9485;49.386;8.674;2023-02-28T16:39:14;6.30;;;5.10;;
18711;SDS011;9485;49.386;8.674;2023-02-28T16:44:45;8.37;;;5.67;;
18711;SDS011;9485;49.386;8.674;2023-02-28T16:50:11;7.00;;;5.47;;
18711;SDS011;9485;49.386;8.674;2023-02-28T16:55:37;6.03;;;5.07;;
18711;SDS011;9485;49.386;8.674;2023-02-28T17:01:02;7.10;;;5.67;;
18711;SDS011;9485;49.386;8.674;2023-02-28T17:06:24;6.70;;;5.27;;
18711;SDS011;9485;49.386;8.674;2023-02-28T17:11:48;6.97;;;5.70;;
18711;SDS011;9485;49.386;8.674;2023-02-28T17:17:11;6.60;;;4.97;;
18711;SDS011;9485;49.386;8.674;2023-02-28T17:22:39;6.40;;;5.10;;
18711;SDS011;9485;49.386;8.674;2023-02-28T17:28:00;6.10;;;5.43;;
18711;SDS011;9485;49.386;8.674;2023-02-28T17:33:22;8.13;;;5.77;;
18711;SDS011;9485;49.386;8.674;2023-02-28T17:38:42;6.37;;;5.50;;
18711;SDS011;9485;49.386;8.674;2023-02-28T17:44:04;7.13;;;5.57;;
18711;SDS011;9485;49.386;8.674;2023-02-28T17:49:26;8.97;;;5.30;;
18711;SDS011;9485;49.386;8.674;2023-02-28T17:54:47;8.67;;;5.47;;
18711;SDS011;9485;49.386;8.674;2023-02-28T18:00:10;6.50;;;5.27;;
18711;SDS011;9485;49.386;8.674;2023-02-28T18:05:35;8.73;;;5.60;;
18711;SDS011;9485;49.386;8.674;2023-02-28T18:10:57;7.33;;;5.70;;
18711;SDS011;9485;49.386;8.674;2023-02-28T18:16:18;7.13;;;5.33;;
18711;SDS011;9485;49.386;8.674;2023-02-28T18:21:43;9.27;;;5.53;;
18711;SDS011;9485;49.386;8.674;2023-02-28T18:27:07;7.50;;;5.83;;
18711;SDS011;9485;49.386;8.674;2023-02-28T18:32:28;7.07;;;5.30;;
18711;SDS011;9485;49.386;8.674;2023-02-28T18:37:50;7.33;;;5.70;;
18711;SDS011;9485;49.386;8.674;2023-02-28T18:43:12;9.00;;;6.10;;
18711;SDS011;9485;49.386;8.674;2023-02-28T18:48:33;7.50;;;5.63;;
18711;SDS011;9485;49.386;8.674;2023-02-28T18:53:56;7.23;;;5.90;;
18711;SDS011;9485;49.386;8.674;2023-02-28T18:59:18;6.97;;;5.67;;
18711;SDS011;9485;49.386;8.674;2023-02-28T19:04:39;7.97;;;6.00;;
18711;SDS011;9485;49.386;8.674;2023-02-28T19:10:03;7.27;;;5.67;;
18711;SDS011;9485;49.386;8.674;2023-02-28T19:15:25;8.33;;;5.13;;
18711;SDS011;9485;49.386;8.674;2023-02-28T19:20:46;6.87;;;5.80;;
18711;SDS011;9485;49.386;8.674;2023-02-28T19:26:09;7.90;;;5.50;;
18711;SDS011;9485;49.386;8.674;2023-02-28T19:31:33;7.90;;;5.27;;
18711;SDS011;9485;49.386;8.674;2023-02-28T19:36:54;8.83;;;5.53;;
18711;SDS011;9485;49.386;8.674;2023-02-28T19:42:16;7.83;;;5.20;;
18711;SDS011;9485;49.386;8.674;2023-02-28T19:47:37;6.63;;;5.57;;
18711;SDS011;9485;49.386;8.674;2023-02-28T19:52:59;7.83;;;5.37;;
18711;SDS011;9485;49.386;8.674;2023-02-28T19:58:22;10.23;;;5.30;;
18711;SDS011;9485;49.386;8.674;2023-02-28T20:03:45;5.90;;;4.93;;
18711;SDS011;9485;49.386;8.674;2023-02-28T20:09:08;7.10;;;5.30;;
18711;SDS011;9485;49.386;8.674;2023-02-28T20:14:30;6.73;;;5.10;;
18711;SDS011;9485;49.386;8.674;2023-02-28T20:19:51;7.73;;;5.20;;
18711;SDS011;9485;49.386;8.674;2023-02-28T20:25:13;7.93;;;5.67;;
18711;SDS011;9485;49.386;8.674;2023-02-28T20:30:37;7.77;;;5.40;;
18711;SDS011;9485;49.386;8.674;2023-02-28T20:36:00;6.47;;;4.67;;
18711;SDS011;9485;49.386;8.674;2023-02-28T20:41:24;6.97;;;5.10;;
18711;SDS011;9485;49.386;8.674;2023-02-28T20:46:47;5.67;;;5.03;;
18711;SDS011;9485;49.386;8.674;2023-02-28T20:52:07;4.93;;;4.43;;
18711;SDS011;9485;49.386;8.674;2023-02-28T20:57:29;6.60;;;4.80;;
18711;SDS011;9485;49.386;8.674;2023-02-28T21:24:18;5.83;;;4.57;;
18711;SDS011;9485;49.386;8.674;2023-02-28T21:29:40;6.47;;;5.10;;
18711;SDS011;9485;49.386;8.674;2023-02-28T21:35:00;6.23;;;5.13;;
18711;SDS011;9485;49.386;8.674;2023-02-28T21:40:22;7.43;;;5.10;;
18711;SDS011;9485;49.386;8.674;2023-02-28T21:45:43;8.13;;;5.30;;
18711;SDS011;9485;49.386;8.674;2023-02-28T21:51:04;6.17;;;4.83;;
18711;SDS011;9485;49.386;8.674;2023-02-28T21:56:29;5.57;;;4.97;;
18711;SDS011;9485;49.386;8.674;2023-02-28T22:01:52;8.07;;;5.47;;
18711;SDS011;9485;49.386;8.674;2023-02-28T22:07:13;7.20;;;5.10;;
18711;SDS011;9485;49.386;8.674;2023-02-28T22:12:37;8.87;;;5.70;;
18711;SDS011;9485;49.386;8.674;2023-02-28T22:18:00;6.90;;;5.33;;
18711;SDS011;9485;49.386;8.674;2023-02-28T22:23:21;7.20;;;5.57;;
18711;SDS011;9485;49.386;8.674;2023-02-28T22:28:43;8.20;;;5.83;;
18711;SDS011;9485;49.386;8.674;2023-02-28T22:34:05;6.30;;;5.20;;
18711;SDS011;9485;49.386;8.674;2023-02-28T22:39:29;8.43;;;5.97;;
18711;SDS011;9485;49.386;8.674;2023-02-28T22:44:51;8.43;;;5.73;;
18711;SDS011;9485;49.386;8.674;2023-02-28T22:50:12;7.60;;;6.17;;
18711;SDS011;9485;49.386;8.674;2023-02-28T22:55:33;9.30;;;7.03;;
18711;SDS011;9485;49.386;8.674;2023-02-28T23:00:55;9.20;;;6.50;;
18711;SDS011;9485;49.386;8.674;2023-02-28T23:06:17;6.63;;;5.67;;
18711;SDS011;9485;49.386;8.674;2023-02-28T23:11:43;7.50;;;5.87;;
18711;SDS011;9485;49.386;8.674;2023-02-28T23:17:07;9.67;;;6.47;;
18711;SDS011;9485;49.386;8.674;2023-02-28T23:22:28;14.80;;;7.10;;
18711;SDS011;9485;49.386;8.674;2023-02-28T23:27:49;8.83;;;6.07;;
18711;SDS011;9485;49.386;8.674;2023-02-28T23:33:11;7.73;;;6.17;;
18711;SDS011;9485;49.386;8.674;2023-02-28T23:38:32;9.80;;;6.90;;
18711;SDS011;9485;49.386;8.674;2023-02-28T23:43:52;9.70;;;7.00;;
18711;SDS011;9485;49.386;8.674;2023-02-28T23:49:15;11.50;;;7.67;;
18711;SDS011;9485;49.386;8.674;2023-02-28T23:54:38;8.93;;;5.83;;
18711;SDS011;9485;49.386;8.674;2023-02-28T23:59:59;7.70;;;6.67;;
